Time;durP1;ratioP1;P1;durP2;ratioP2;P2;SDS_P1;SDS_P2;PMS_P1;PMS_P2;Temp;Humidity;BMP_temperature;BMP_pressure;BME280_temperature;BME280_humidity;BME280_pressure;Samples;Min_cycle;Max_cycle;Signal;HPM_P1;HPM_P2
2022/03/10 00:00:56;;;;;;;124.90;54.15;;;;;;;;;;4770818;30;20067;-83
2022/03/10 00:03:42;;;;;;;116.43;53.20;;;;;;;;;;4775882;30;20494;-82
2022/03/10 00:06:27;;;;;;;104.50;46.35;;;;;;;;;;4770422;30;20052;-82
2022/03/10 00:09:14;;;;;;;105.60;46.05;;;;;;;;;;4770462;30;20052;-81
2022/03/10 00:12:02;;;;;;;91.80;43.92;;;;;;;;;;4776421;30;20048;-80
2022/03/10 00:14:48;;;;;;;88.65;44.28;;;;;;;;;;4773833;30;20051;-82
2022/03/10 00:17:33;;;;;;;105.38;50.45;;;;;;;;;;4757505;30;20060;-81
2022/03/10 00:20:20;;;;;;;87.32;40.70;;;;;;;;;;4770626;30;20048;-82
2022/03/10 00:23:07;;;;;;;144.02;61.72;;;;;;;;;;4770717;30;20051;-82
2022/03/10 00:25:53;;;;;;;94.88;45.22;;;;;;;;;;4770848;30;20048;-83
2022/03/10 00:28:39;;;;;;;96.45;44.78;;;;;;;;;;4773298;30;20055;-83
2022/03/10 00:31:25;;;;;;;86.45;42.72;;;;;;;;;;4773871;30;20055;-83
2022/03/10 00:34:11;;;;;;;83.22;40.83;;;;;;;;;;4779408;30;20051;-82
2022/03/10 00:36:56;;;;;;;88.50;42.30;;;;;;;;;;4779650;30;20487;-83
2022/03/10 00:39:43;;;;;;;97.07;42.45;;;;;;;;;;4774059;30;20048;-83
2022/03/10 00:42:35;;;;;;;91.82;40.90;;;;;;;;;;4773580;30;20047;-83
2022/03/10 00:45:21;;;;;;;91.88;43.80;;;;;;;;;;4774682;30;20471;-82
2022/03/10 00:48:08;;;;;;;99.47;43.33;;;;;;;;;;4773663;30;20051;-81
2022/03/10 00:50:55;;;;;;;100.55;45.40;;;;;;;;;;4774332;30;20487;-82
2022/03/10 00:53:41;;;;;;;106.95;49.83;;;;;;;;;;4773666;30;20044;-83
2022/03/10 00:56:26;;;;;;;107.45;46.63;;;;;;;;;;4760547;30;20055;-82
2022/03/10 00:59:11;;;;;;;104.50;47.85;;;;;;;;;;4773830;30;20482;-83
2022/03/10 01:01:56;;;;;;;110.68;50.70;;;;;;;;;;4773453;30;20399;-84
2022/03/10 01:04:43;;;;;;;125.60;57.65;;;;;;;;;;4778597;30;20056;-83
2022/03/10 01:07:29;;;;;;;138.52;66.00;;;;;;;;;;4773398;30;20057;-82
2022/03/10 01:10:16;;;;;;;104.40;51.35;;;;;;;;;;4772926;30;20047;-83
2022/03/10 01:13:02;;;;;;;120.70;53.40;;;;;;;;;;4765567;30;20060;-82
2022/03/10 01:15:47;;;;;;;122.93;52.97;;;;;;;;;;4778099;30;20052;-82
2022/03/10 01:18:33;;;;;;;109.32;48.45;;;;;;;;;;4777999;30;20048;-81
2022/03/10 01:21:18;;;;;;;103.43;47.47;;;;;;;;;;4778059;30;20487;-81
2022/03/10 01:24:04;;;;;;;107.25;48.72;;;;;;;;;;4777719;30;20048;-84
2022/03/10 01:26:50;;;;;;;130.98;54.35;;;;;;;;;;4772016;30;20056;-82
2022/03/10 01:29:35;;;;;;;103.30;48.05;;;;;;;;;;4773190;30;20056;-82
2022/03/10 01:32:21;;;;;;;101.43;45.58;;;;;;;;;;4772863;30;20410;-82
2022/03/10 01:35:07;;;;;;;105.78;46.83;;;;;;;;;;4778248;30;20051;-82
2022/03/10 01:37:52;;;;;;;90.85;43.40;;;;;;;;;;4777930;30;20052;-83
2022/03/10 01:40:38;;;;;;;100.68;45.53;;;;;;;;;;4772416;30;20052;-82
2022/03/10 01:43:24;;;;;;;102.13;49.08;;;;;;;;;;4777493;30;20403;-82
2022/03/10 01:46:10;;;;;;;99.00;48.58;;;;;;;;;;4778206;30;20491;-82
2022/03/10 01:48:57;;;;;;;121.38;52.42;;;;;;;;;;4777996;30;20047;-83
2022/03/10 01:51:43;;;;;;;111.13;50.95;;;;;;;;;;4790342;30;20056;-82
2022/03/10 01:54:29;;;;;;;101.25;48.95;;;;;;;;;;4787340;30;20044;-83
2022/03/10 01:57:14;;;;;;;91.80;43.70;;;;;;;;;;4777641;30;20051;-82
2022/03/10 02:00:01;;;;;;;92.65;45.15;;;;;;;;;;4765764;30;20051;-82
2022/03/10 02:02:46;;;;;;;80.43;42.22;;;;;;;;;;4777885;30;20051;-82
2022/03/10 02:05:32;;;;;;;84.20;41.75;;;;;;;;;;4777829;30;20051;-83
2022/03/10 02:11:32;;;;;;;85.95;42.10;;;;;;;;;;4771405;30;20048;-82
2022/03/10 02:17:21;;;;;;;82.35;39.10;;;;;;;;;;4772359;30;20059;-83
2022/03/10 02:20:07;;;;;;;89.70;43.00;;;;;;;;;;4777176;30;20044;-81
2022/03/10 02:22:53;;;;;;;88.25;43.38;;;;;;;;;;4770827;30;20044;-83
2022/03/10 02:25:39;;;;;;;99.57;47.17;;;;;;;;;;4772196;30;20048;-81
2022/03/10 02:28:28;;;;;;;96.63;46.63;;;;;;;;;;4771613;30;20052;-82
2022/03/10 02:31:13;;;;;;;103.22;50.13;;;;;;;;;;4771784;30;20052;-81
2022/03/10 02:33:59;;;;;;;97.65;47.55;;;;;;;;;;4772259;30;20063;-82
2022/03/10 02:36:44;;;;;;;99.25;49.42;;;;;;;;;;4772301;30;20048;-84
2022/03/10 02:39:30;;;;;;;103.90;47.95;;;;;;;;;;4772007;30;20047;-83
2022/03/10 02:42:16;;;;;;;93.20;46.10;;;;;;;;;;4778839;30;20047;-81
2022/03/10 02:45:01;;;;;;;106.63;48.40;;;;;;;;;;4771743;30;20052;-81
2022/03/10 02:47:47;;;;;;;84.85;43.00;;;;;;;;;;4771729;30;20060;-81
2022/03/10 02:50:32;;;;;;;91.15;44.13;;;;;;;;;;4770708;30;20052;-81
2022/03/10 02:53:18;;;;;;;87.53;41.42;;;;;;;;;;4771408;30;20051;-81
2022/03/10 02:56:03;;;;;;;75.68;39.72;;;;;;;;;;4771703;30;20047;-81
2022/03/10 02:58:49;;;;;;;80.97;39.03;;;;;;;;;;4771578;30;20052;-82
2022/03/10 03:01:34;;;;;;;77.13;37.85;;;;;;;;;;4771767;30;20051;-82
2022/03/10 03:04:22;;;;;;;79.38;38.47;;;;;;;;;;4771645;30;20060;-82
2022/03/10 03:07:07;;;;;;;76.35;37.65;;;;;;;;;;4771743;30;20047;-81
2022/03/10 03:09:53;;;;;;;75.00;38.78;;;;;;;;;;4771482;30;20403;-82
2022/03/10 03:12:46;;;;;;;73.50;37.83;;;;;;;;;;4771435;30;20395;-82
2022/03/10 03:15:31;;;;;;;80.55;38.15;;;;;;;;;;4776839;30;20390;-83
2022/03/10 03:18:16;;;;;;;71.35;35.90;;;;;;;;;;4776578;30;20411;-82
2022/03/10 03:21:01;;;;;;;71.32;36.60;;;;;;;;;;4776934;30;20047;-80
2022/03/10 03:23:47;;;;;;;74.18;37.92;;;;;;;;;;4757742;30;20052;-82
2022/03/10 03:26:33;;;;;;;71.78;36.60;;;;;;;;;;4771303;30;20051;-83
2022/03/10 03:29:18;;;;;;;69.93;36.15;;;;;;;;;;4776168;30;20044;-81
2022/03/10 03:32:05;;;;;;;71.18;38.05;;;;;;;;;;4782335;30;20052;-81
2022/03/10 03:34:50;;;;;;;73.00;39.50;;;;;;;;;;4771258;30;20395;-80
2022/03/10 03:37:35;;;;;;;82.40;40.13;;;;;;;;;;4771276;30;20059;-81
2022/03/10 03:40:20;;;;;;;79.53;37.97;;;;;;;;;;4774919;30;20052;-80
2022/03/10 03:43:06;;;;;;;78.25;37.45;;;;;;;;;;4776226;30;20055;-81
2022/03/10 03:45:52;;;;;;;76.03;37.95;;;;;;;;;;4771076;30;20056;-83
2022/03/10 03:48:37;;;;;;;79.03;38.45;;;;;;;;;;4776033;30;20055;-81
2022/03/10 03:51:22;;;;;;;75.82;38.38;;;;;;;;;;4770902;30;20407;-83
2022/03/10 03:54:07;;;;;;;75.13;38.35;;;;;;;;;;4763524;30;20047;-82
2022/03/10 03:56:53;;;;;;;76.22;37.88;;;;;;;;;;4776396;30;20503;-83
2022/03/10 03:59:38;;;;;;;75.57;37.95;;;;;;;;;;4757469;30;20048;-81
2022/03/10 04:02:24;;;;;;;72.72;37.17;;;;;;;;;;4777557;30;20048;-82
2022/03/10 04:05:10;;;;;;;70.10;37.38;;;;;;;;;;4779732;30;20055;-83
2022/03/10 04:07:55;;;;;;;68.88;34.85;;;;;;;;;;4779570;30;20047;-82
2022/03/10 04:10:41;;;;;;;70.13;34.55;;;;;;;;;;4796118;29;20064;-81
2022/03/10 04:13:27;;;;;;;64.72;34.22;;;;;;;;;;4786224;29;20048;-82
2022/03/10 04:16:12;;;;;;;65.88;33.00;;;;;;;;;;4780198;30;20044;-83
2022/03/10 04:18:58;;;;;;;67.38;33.78;;;;;;;;;;4785888;30;20055;-82
2022/03/10 04:21:44;;;;;;;65.03;32.65;;;;;;;;;;4779991;30;20055;-83
2022/03/10 04:24:29;;;;;;;60.95;32.97;;;;;;;;;;4779458;30;20479;-82
2022/03/10 04:27:15;;;;;;;56.10;30.60;;;;;;;;;;4779047;30;20051;-81
2022/03/10 04:30:00;;;;;;;72.28;33.63;;;;;;;;;;4779105;30;20040;-83
2022/03/10 04:32:46;;;;;;;66.70;34.60;;;;;;;;;;4761090;30;20056;-82
2022/03/10 04:35:32;;;;;;;65.88;33.20;;;;;;;;;;4779240;30;20051;-82
2022/03/10 04:38:19;;;;;;;60.70;31.52;;;;;;;;;;4779386;30;20059;-82
2022/03/10 04:41:05;;;;;;;61.13;32.17;;;;;;;;;;4779401;30;20047;-82
2022/03/10 04:43:50;;;;;;;67.28;31.58;;;;;;;;;;4779192;30;20048;-82
2022/03/10 04:46:37;;;;;;;57.72;32.80;;;;;;;;;;4774357;30;20059;-82
2022/03/10 04:49:22;;;;;;;62.58;31.08;;;;;;;;;;4773676;30;20052;-82
2022/03/10 04:52:08;;;;;;;60.10;30.48;;;;;;;;;;4773731;30;20060;-83
2022/03/10 04:54:53;;;;;;;65.18;32.90;;;;;;;;;;4778987;30;20487;-83
2022/03/10 04:57:40;;;;;;;59.63;31.10;;;;;;;;;;4766249;30;20406;-82
2022/03/10 05:00:25;;;;;;;54.95;30.50;;;;;;;;;;4779159;30;20059;-82
2022/03/10 05:03:13;;;;;;;60.83;31.77;;;;;;;;;;4778394;30;20055;-81
2022/03/10 05:05:59;;;;;;;66.90;34.13;;;;;;;;;;4781236;30;20395;-82
2022/03/10 05:08:44;;;;;;;57.25;31.75;;;;;;;;;;4773345;30;20483;-82
2022/03/10 05:11:29;;;;;;;61.80;32.70;;;;;;;;;;4772817;30;20047;-82
2022/03/10 05:14:15;;;;;;;67.32;33.15;;;;;;;;;;4772330;30;20055;-83
2022/03/10 05:17:00;;;;;;;69.90;37.28;;;;;;;;;;4773297;30;20059;-83
2022/03/10 05:19:47;;;;;;;81.53;41.17;;;;;;;;;;4773167;30;20052;-79
2022/03/10 05:22:47;;;;;;;69.13;36.95;;;;;;;;;;4773926;30;20047;-80
2022/03/10 05:25:38;;;;;;;66.47;34.67;;;;;;;;;;4773026;30;20044;-82
2022/03/10 05:28:23;;;;;;;124.00;56.80;;;;;;;;;;4772997;30;20044;-81
2022/03/10 05:31:09;;;;;;;131.95;60.80;;;;;;;;;;4772817;30;20055;-81
2022/03/10 05:33:54;;;;;;;121.13;58.30;;;;;;;;;;4772539;30;20044;-80
2022/03/10 05:36:40;;;;;;;113.45;54.15;;;;;;;;;;4773667;30;20415;-81
2022/03/10 05:39:26;;;;;;;98.65;44.78;;;;;;;;;;4772577;30;20052;-81
2022/03/10 05:42:11;;;;;;;84.95;43.85;;;;;;;;;;4773840;30;20055;-81
2022/03/10 05:44:57;;;;;;;84.28;42.13;;;;;;;;;;4772466;30;20052;-80
2022/03/10 05:47:42;;;;;;;95.65;45.80;;;;;;;;;;4772990;30;20056;-81
2022/03/10 05:50:28;;;;;;;83.40;43.20;;;;;;;;;;4772714;30;20495;-81
2022/03/10 05:53:14;;;;;;;127.18;64.53;;;;;;;;;;4773602;30;20055;-81
2022/03/10 05:55:59;;;;;;;89.68;46.10;;;;;;;;;;4772745;30;20043;-79
2022/03/10 05:58:45;;;;;;;90.80;44.28;;;;;;;;;;4773883;30;20052;-81
2022/03/10 06:01:30;;;;;;;94.80;46.60;;;;;;;;;;4776169;30;20048;-78
2022/03/10 06:04:16;;;;;;;108.13;52.45;;;;;;;;;;4776175;30;20399;-80
2022/03/10 06:07:02;;;;;;;108.35;51.33;;;;;;;;;;4777018;30;20047;-78
2022/03/10 06:09:47;;;;;;;106.50;49.30;;;;;;;;;;4777244;30;20494;-81
2022/03/10 06:12:33;;;;;;;98.75;48.47;;;;;;;;;;4776316;30;20051;-81
2022/03/10 06:15:19;;;;;;;96.22;45.15;;;;;;;;;;4775873;30;20052;-79
2022/03/10 06:18:04;;;;;;;76.40;40.95;;;;;;;;;;4775942;30;20044;-81
2022/03/10 06:20:49;;;;;;;84.10;43.88;;;;;;;;;;4772271;30;20051;-81
2022/03/10 06:23:35;;;;;;;92.85;47.40;;;;;;;;;;4772525;30;20043;-81
2022/03/10 06:26:21;;;;;;;91.63;47.55;;;;;;;;;;4777557;30;20059;-81
2022/03/10 06:29:08;;;;;;;93.38;45.83;;;;;;;;;;4788031;29;20047;-79
2022/03/10 06:31:53;;;;;;;105.45;49.83;;;;;;;;;;4783879;30;20048;-80
2022/03/10 06:34:38;;;;;;;120.95;56.47;;;;;;;;;;4771940;30;20047;-80
2022/03/10 06:37:24;;;;;;;116.40;60.40;;;;;;;;;;4771541;30;20371;-80
2022/03/10 06:40:10;;;;;;;128.73;64.95;;;;;;;;;;4775407;30;20051;-79
2022/03/10 06:42:55;;;;;;;120.95;61.05;;;;;;;;;;4771927;30;20063;-79
2022/03/10 06:45:41;;;;;;;116.90;56.50;;;;;;;;;;4771672;30;20048;-79
2022/03/10 06:48:26;;;;;;;117.32;56.42;;;;;;;;;;4772022;30;20064;-80
2022/03/10 06:51:12;;;;;;;110.75;54.28;;;;;;;;;;4775637;30;20059;-79
2022/03/10 06:53:58;;;;;;;126.47;60.28;;;;;;;;;;4776447;30;20052;-80
2022/03/10 06:56:44;;;;;;;108.78;55.28;;;;;;;;;;4771602;30;20051;-81
2022/03/10 06:59:31;;;;;;;107.47;54.05;;;;;;;;;;4771980;30;20048;-79
2022/03/10 07:02:17;;;;;;;107.78;56.75;;;;;;;;;;4771307;30;20051;-80
2022/03/10 07:05:03;;;;;;;143.60;67.75;;;;;;;;;;4771405;30;20064;-78
2022/03/10 07:07:49;;;;;;;104.32;53.60;;;;;;;;;;4777063;30;20059;-81
2022/03/10 07:10:34;;;;;;;89.80;47.20;;;;;;;;;;4771223;30;20059;-82
2022/03/10 07:13:20;;;;;;;76.30;44.17;;;;;;;;;;4771506;30;20063;-82
2022/03/10 07:16:05;;;;;;;86.85;45.03;;;;;;;;;;4770677;30;20044;-83
2022/03/10 07:18:51;;;;;;;129.25;59.88;;;;;;;;;;4770843;30;20055;-83
2022/03/10 07:21:40;;;;;;;112.05;58.33;;;;;;;;;;4770692;30;20052;-82
2022/03/10 07:24:25;;;;;;;69.47;37.30;;;;;;;;;;4770562;30;20063;-81
2022/03/10 07:27:11;;;;;;;86.55;43.75;;;;;;;;;;4778469;30;20059;-80
2022/03/10 07:29:56;;;;;;;79.63;40.88;;;;;;;;;;4771310;30;20047;-81
2022/03/10 07:32:42;;;;;;;74.97;41.30;;;;;;;;;;4771272;30;20055;-81
2022/03/10 07:35:27;;;;;;;80.15;46.33;;;;;;;;;;4777127;30;20047;-81
2022/03/10 07:38:13;;;;;;;77.18;45.47;;;;;;;;;;4765965;30;20491;-82
2022/03/10 07:40:58;;;;;;;94.47;51.70;;;;;;;;;;4779542;30;20048;-82
2022/03/10 07:43:44;;;;;;;74.32;42.00;;;;;;;;;;4779386;30;20055;-81
2022/03/10 07:46:29;;;;;;;102.63;53.88;;;;;;;;;;4779922;30;20052;-82
2022/03/10 07:49:14;;;;;;;123.45;61.50;;;;;;;;;;4778547;30;20394;-82
2022/03/10 07:52:00;;;;;;;83.53;43.53;;;;;;;;;;4775813;30;20056;-83
2022/03/10 07:54:46;;;;;;;88.82;45.38;;;;;;;;;;4775136;30;20051;-83
2022/03/10 07:57:31;;;;;;;56.97;34.03;;;;;;;;;;4774414;30;20048;-82
2022/03/10 08:00:16;;;;;;;66.55;35.17;;;;;;;;;;4774095;30;20056;-82
2022/03/10 08:03:01;;;;;;;64.55;37.17;;;;;;;;;;4773910;30;20059;-82
2022/03/10 08:05:47;;;;;;;53.33;30.85;;;;;;;;;;4772145;30;20059;-82
2022/03/10 08:08:33;;;;;;;55.92;32.63;;;;;;;;;;4773812;30;20048;-82
2022/03/10 08:11:18;;;;;;;63.15;33.72;;;;;;;;;;4778487;30;20043;-82
2022/03/10 08:14:04;;;;;;;60.75;33.22;;;;;;;;;;4781905;30;20051;-82
2022/03/10 08:16:50;;;;;;;63.17;35.83;;;;;;;;;;4774184;30;20059;-83
2022/03/10 08:19:36;;;;;;;76.90;39.53;;;;;;;;;;4774039;30;20043;-83
2022/03/10 08:22:24;;;;;;;47.03;28.35;;;;;;;;;;4780400;30;20051;-84
2022/03/10 08:25:10;;;;;;;80.78;42.90;;;;;;;;;;4772928;30;20043;-83
2022/03/10 08:27:56;;;;;;;52.28;31.17;;;;;;;;;;4778626;30;20056;-83
2022/03/10 08:30:42;;;;;;;47.45;28.45;;;;;;;;;;4773856;30;20418;-83
2022/03/10 08:33:28;;;;;;;50.88;30.35;;;;;;;;;;4773835;30;20056;-82
2022/03/10 08:36:13;;;;;;;58.08;31.23;;;;;;;;;;4774554;30;20498;-84
2022/03/10 08:38:59;;;;;;;58.63;34.28;;;;;;;;;;4774162;30;20055;-83
2022/03/10 08:41:44;;;;;;;53.50;30.13;;;;;;;;;;4773657;30;20479;-85
2022/03/10 08:44:30;;;;;;;65.85;31.35;;;;;;;;;;4773959;30;20471;-82
2022/03/10 08:47:15;;;;;;;38.88;22.42;;;;;;;;;;4794355;29;20040;-82
2022/03/10 08:50:02;;;;;;;41.15;21.80;;;;;;;;;;4780280;30;20048;-84
2022/03/10 08:52:49;;;;;;;43.65;24.80;;;;;;;;;;4774361;30;20052;-83
2022/03/10 08:55:34;;;;;;;37.60;21.77;;;;;;;;;;4772897;30;20043;-84
2022/03/10 08:58:20;;;;;;;23.60;15.88;;;;;;;;;;4773149;30;20052;-83
2022/03/10 09:01:05;;;;;;;35.42;19.75;;;;;;;;;;4773609;30;20051;-83
2022/03/10 09:03:51;;;;;;;36.25;21.35;;;;;;;;;;4777665;30;20044;-84
2022/03/10 09:06:36;;;;;;;44.75;22.60;;;;;;;;;;4773110;30;20044;-84
2022/03/10 09:09:24;;;;;;;38.65;21.60;;;;;;;;;;4773146;30;20052;-84
2022/03/10 09:12:09;;;;;;;35.45;20.08;;;;;;;;;;4774154;30;20051;-84
2022/03/10 09:14:54;;;;;;;34.75;21.75;;;;;;;;;;4776293;30;20047;-83
2022/03/10 09:17:40;;;;;;;37.63;21.38;;;;;;;;;;4774751;30;20491;-82
2022/03/10 09:20:25;;;;;;;15.10;10.07;;;;;;;;;;4773890;30;20040;-82
2022/03/10 09:23:11;;;;;;;27.92;17.48;;;;;;;;;;4774825;30;20056;-82
2022/03/10 09:25:56;;;;;;;25.08;15.57;;;;;;;;;;4765851;30;20056;-82
2022/03/10 09:28:43;;;;;;;26.02;16.90;;;;;;;;;;4773056;30;20063;-81
2022/03/10 09:31:28;;;;;;;29.60;19.77;;;;;;;;;;4773228;30;20052;-82
2022/03/10 09:34:13;;;;;;;29.08;19.42;;;;;;;;;;4773111;30;20052;-83
2022/03/10 09:36:59;;;;;;;31.20;19.85;;;;;;;;;;4772378;30;20060;-83
2022/03/10 09:39:45;;;;;;;89.65;46.80;;;;;;;;;;4773045;30;20052;-84
2022/03/10 09:42:32;;;;;;;83.82;43.15;;;;;;;;;;4772746;30;20055;-84
2022/03/10 09:45:18;;;;;;;123.72;57.03;;;;;;;;;;4772916;30;20056;-85
2022/03/10 09:48:04;;;;;;;134.23;66.88;;;;;;;;;;4759598;30;20051;-84
2022/03/10 09:50:49;;;;;;;96.20;50.60;;;;;;;;;;4784905;30;20052;-84
2022/03/10 09:53:35;;;;;;;85.18;47.97;;;;;;;;;;4773398;30;20371;-85
2022/03/10 09:56:21;;;;;;;92.80;47.60;;;;;;;;;;4771648;30;20036;-87
2022/03/10 09:59:07;;;;;;;81.35;45.33;;;;;;;;;;4774006;30;20047;-85
2022/03/10 10:01:53;;;;;;;83.63;42.63;;;;;;;;;;4775630;30;20059;-82
2022/03/10 10:04:41;;;;;;;78.72;42.35;;;;;;;;;;4772199;30;20416;-80
2022/03/10 10:07:28;;;;;;;85.32;44.03;;;;;;;;;;4772112;30;20051;-79
2022/03/10 10:10:27;;;;;;;65.28;35.00;;;;;;;;;;4771548;30;20127;-79
2022/03/10 10:13:23;;;;;;;90.65;45.85;;;;;;;;;;4775482;30;20055;-79
2022/03/10 10:16:17;;;;;;;65.55;35.95;;;;;;;;;;4772271;30;20490;-83
2022/03/10 10:19:03;;;;;;;52.33;28.30;;;;;;;;;;4771586;30;20056;-82
2022/03/10 10:22:17;;;;;;;47.08;26.52;;;;;;;;;;4772541;30;20047;-83
2022/03/10 10:25:05;;;;;;;35.85;18.13;;;;;;;;;;4772091;30;20048;-82
2022/03/10 10:27:50;;;;;;;24.85;13.20;;;;;;;;;;4772075;30;20044;-81
2022/03/10 10:30:51;;;;;;;32.17;18.35;;;;;;;;;;4771658;30;20056;-79
2022/03/10 10:33:39;;;;;;;31.88;19.77;;;;;;;;;;4772430;30;20072;-80
2022/03/10 10:36:36;;;;;;;21.33;14.18;;;;;;;;;;4771933;30;20483;-79
2022/03/10 10:39:22;;;;;;;33.28;19.38;;;;;;;;;;4771937;30;20224;-82
2022/03/10 10:42:15;;;;;;;27.88;15.48;;;;;;;;;;4778161;30;20051;-80
2022/03/10 10:45:21;;;;;;;34.75;17.90;;;;;;;;;;4771376;30;20051;-83
2022/03/10 10:48:08;;;;;;;;;;;;;;;;;;4772027;30;20044;-81
2022/03/10 10:50:54;;;;;;;76.65;35.40;;;;;;;;;;4771186;30;19917;-82
2022/03/10 10:53:40;;;;;;;31.55;16.55;;;;;;;;;;4771704;30;20052;-81
2022/03/10 10:56:26;;;;;;;43.40;22.98;;;;;;;;;;4770933;30;20043;-81
2022/03/10 10:59:34;;;;;;;41.35;22.85;;;;;;;;;;4770976;30;20051;-80
2022/03/10 11:02:21;;;;;;;39.45;22.67;;;;;;;;;;4771180;30;20040;-82
2022/03/10 11:05:14;;;;;;;11.73;7.80;;;;;;;;;;4791236;29;20048;-80
2022/03/10 11:08:00;;;;;;;46.95;25.40;;;;;;;;;;4779138;29;20044;-81
2022/03/10 11:10:45;;;;;;;27.17;16.77;;;;;;;;;;4771127;30;20086;-78
2022/03/10 11:13:31;;;;;;;57.90;35.55;;;;;;;;;;4770609;30;20044;-79
2022/03/10 11:16:17;;;;;;;86.10;44.08;;;;;;;;;;4770811;30;20052;-79
2022/03/10 11:19:03;;;;;;;73.60;38.22;;;;;;;;;;4770895;30;20398;-79
2022/03/10 11:22:03;;;;;;;51.72;29.17;;;;;;;;;;4770657;30;20056;-82
2022/03/10 11:25:04;;;;;;;77.80;41.17;;;;;;;;;;4771010;30;20483;-80
2022/03/10 11:27:56;;;;;;;128.18;61.45;;;;;;;;;;4771015;30;20051;-81
2022/03/10 11:30:49;;;;;;;113.45;58.05;;;;;;;;;;4779489;30;20039;-79
2022/03/10 11:33:36;;;;;;;106.28;55.20;;;;;;;;;;4771076;30;20055;-80
2022/03/10 11:36:26;;;;;;;123.68;65.32;;;;;;;;;;4770998;30;20494;-79
2022/03/10 11:39:23;;;;;;;109.55;57.92;;;;;;;;;;4777277;30;20055;-77
2022/03/10 11:42:30;;;;;;;53.35;31.80;;;;;;;;;;4770637;30;20051;-79
2022/03/10 11:45:21;;;;;;;33.88;19.40;;;;;;;;;;4770967;30;20052;-81
2022/03/10 11:48:22;;;;;;;41.42;23.70;;;;;;;;;;4770749;30;20051;-80
2022/03/10 11:51:10;;;;;;;51.75;26.83;;;;;;;;;;4770640;30;20411;-78
2022/03/10 11:53:58;;;;;;;51.28;27.17;;;;;;;;;;4771090;30;20491;-77
2022/03/10 11:56:43;;;;;;;36.42;20.40;;;;;;;;;;4770923;30;20437;-78
2022/03/10 11:59:31;;;;;;;25.95;14.52;;;;;;;;;;4770720;30;20048;-77
2022/03/10 12:02:39;;;;;;;22.30;13.02;;;;;;;;;;4770769;30;20482;-78
2022/03/10 12:05:58;;;;;;;35.20;18.15;;;;;;;;;;4770855;30;20048;-78
2022/03/10 12:09:01;;;;;;;29.60;16.85;;;;;;;;;;4770716;30;20059;-79
2022/03/10 12:11:51;;;;;;;50.92;26.38;;;;;;;;;;4776610;30;20395;-79
2022/03/10 12:14:38;;;;;;;42.17;20.58;;;;;;;;;;4773955;30;20055;-79
2022/03/10 12:17:42;;;;;;;29.30;15.93;;;;;;;;;;4770472;30;20412;-79
2022/03/10 12:20:39;;;;;;;38.67;19.17;;;;;;;;;;4770539;30;20048;-83
2022/03/10 12:23:29;;;;;;;50.55;23.23;;;;;;;;;;4782299;30;20487;-82
2022/03/10 12:26:28;;;;;;;40.38;20.17;;;;;;;;;;4776573;30;20043;-81
2022/03/10 12:29:13;;;;;;;31.67;20.08;;;;;;;;;;4761317;30;20051;-82
2022/03/10 12:32:03;;;;;;;39.15;22.58;;;;;;;;;;4773935;30;20059;-83
2022/03/10 12:34:49;;;;;;;38.33;20.00;;;;;;;;;;4774032;30;20051;-82
2022/03/10 12:37:35;;;;;;;49.80;29.30;;;;;;;;;;4773772;30;20490;-82
2022/03/10 12:40:32;;;;;;;84.40;40.13;;;;;;;;;;4773808;30;20399;-80
2022/03/10 12:43:27;;;;;;;64.95;35.85;;;;;;;;;;4776589;30;20051;-82
2022/03/10 12:46:12;;;;;;;64.70;35.20;;;;;;;;;;4777845;30;20048;-83
2022/03/10 12:49:05;;;;;;;171.55;73.28;;;;;;;;;;4773881;30;20399;-83
2022/03/10 12:51:50;;;;;;;185.55;86.32;;;;;;;;;;4773427;30;20063;-82
2022/03/10 12:54:40;;;;;;;80.45;38.50;;;;;;;;;;4773412;30;20043;-82
2022/03/10 12:57:26;;;;;;;97.40;42.90;;;;;;;;;;4773172;30;20051;-83
2022/03/10 13:00:18;;;;;;;70.63;36.63;;;;;;;;;;4777847;30;20407;-82
2022/03/10 13:03:04;;;;;;;69.30;35.40;;;;;;;;;;4772218;30;20043;-80
2022/03/10 13:05:49;;;;;;;47.55;26.75;;;;;;;;;;4772751;30;20048;-82
2022/03/10 13:08:40;;;;;;;45.50;24.52;;;;;;;;;;4773163;30;20052;-81
2022/03/10 13:11:30;;;;;;;38.78;20.30;;;;;;;;;;4772644;30;20048;-82
2022/03/10 13:14:18;;;;;;;39.70;23.25;;;;;;;;;;4779451;30;20044;-81
2022/03/10 13:17:03;;;;;;;58.83;32.15;;;;;;;;;;4773650;30;20432;-81
2022/03/10 13:19:49;;;;;;;34.80;18.48;;;;;;;;;;4773100;30;20047;-82
2022/03/10 13:22:34;;;;;;;20.15;12.90;;;;;;;;;;4779839;30;20051;-83
2022/03/10 13:25:22;;;;;;;44.15;24.77;;;;;;;;;;4796528;29;20040;-83
2022/03/10 13:28:11;;;;;;;59.22;36.47;;;;;;;;;;4775447;30;20494;-82
2022/03/10 13:30:56;;;;;;;42.13;26.05;;;;;;;;;;4760137;30;20052;-80
2022/03/10 13:33:42;;;;;;;30.55;16.33;;;;;;;;;;4772791;30;20059;-81
2022/03/10 13:36:27;;;;;;;29.73;16.08;;;;;;;;;;4771807;30;20394;-81
2022/03/10 13:39:13;;;;;;;30.23;18.70;;;;;;;;;;4772463;30;20051;-84
2022/03/10 13:42:01;;;;;;;36.33;22.17;;;;;;;;;;4772789;30;20052;-80
2022/03/10 13:44:47;;;;;;;38.53;22.05;;;;;;;;;;4772237;30;20394;-81
2022/03/10 13:47:54;;;;;;;45.70;24.52;;;;;;;;;;4758641;30;20052;-81
2022/03/10 13:50:42;;;;;;;43.28;24.42;;;;;;;;;;4772497;30;20395;-82
2022/03/10 13:53:27;;;;;;;43.38;25.23;;;;;;;;;;4773941;30;20482;-83
2022/03/10 13:56:13;;;;;;;49.80;28.42;;;;;;;;;;4772239;30;20056;-83
2022/03/10 13:59:02;;;;;;;116.65;67.05;;;;;;;;;;4772334;30;20052;-85
2022/03/10 14:01:47;;;;;;;151.73;86.72;;;;;;;;;;4771683;30;20483;-85
2022/03/10 14:04:36;;;;;;;91.57;50.35;;;;;;;;;;4770176;30;20063;-83
2022/03/10 14:07:22;;;;;;;44.33;27.30;;;;;;;;;;4772659;30;20051;-85
2022/03/10 14:10:08;;;;;;;226.55;81.10;;;;;;;;;;4776987;30;20051;-84
2022/03/10 14:12:55;;;;;;;199.80;76.35;;;;;;;;;;4764332;30;20043;-82
2022/03/10 14:15:42;;;;;;;73.45;38.92;;;;;;;;;;4777105;30;20043;-82
2022/03/10 14:18:28;;;;;;;72.50;37.40;;;;;;;;;;4770819;30;20411;-82
2022/03/10 14:21:15;;;;;;;64.22;34.22;;;;;;;;;;4771668;30;20056;-81
2022/03/10 14:24:03;;;;;;;51.25;28.67;;;;;;;;;;4778179;30;20479;-82
2022/03/10 14:26:50;;;;;;;48.00;28.48;;;;;;;;;;4771550;30;20048;-81
2022/03/10 14:29:42;;;;;;;43.97;26.77;;;;;;;;;;4771620;30;20048;-82
2022/03/10 14:32:29;;;;;;;44.05;26.88;;;;;;;;;;4771470;30;20051;-81
2022/03/10 14:35:14;;;;;;;47.35;28.17;;;;;;;;;;4771672;30;20056;-80
2022/03/10 14:38:00;;;;;;;72.18;38.38;;;;;;;;;;4771128;30;20052;-80
2022/03/10 14:40:46;;;;;;;68.35;35.97;;;;;;;;;;4771513;30;20055;-80
2022/03/10 14:43:32;;;;;;;55.92;30.70;;;;;;;;;;4771242;30;20060;-83
2022/03/10 14:46:18;;;;;;;41.90;25.95;;;;;;;;;;4771033;30;20047;-82
2022/03/10 14:49:05;;;;;;;50.15;28.08;;;;;;;;;;4771323;30;20056;-83
2022/03/10 14:51:52;;;;;;;45.25;28.02;;;;;;;;;;4770850;30;20051;-82
2022/03/10 14:54:37;;;;;;;49.92;29.50;;;;;;;;;;4771219;30;20056;-82
2022/03/10 14:57:23;;;;;;;63.55;33.00;;;;;;;;;;4779123;30;20059;-78
2022/03/10 15:00:10;;;;;;;59.88;32.08;;;;;;;;;;4771502;30;20051;-81
2022/03/10 15:02:55;;;;;;;47.53;25.73;;;;;;;;;;4771553;30;20051;-83
2022/03/10 15:05:41;;;;;;;40.05;25.73;;;;;;;;;;4771509;30;20504;-83
2022/03/10 15:08:26;;;;;;;36.03;20.58;;;;;;;;;;4776609;30;20047;-80
2022/03/10 15:11:13;;;;;;;34.90;20.73;;;;;;;;;;4771129;30;20462;-81
2022/03/10 15:13:58;;;;;;;46.90;24.77;;;;;;;;;;4771297;30;20403;-81
2022/03/10 15:16:44;;;;;;;49.45;27.48;;;;;;;;;;4771661;30;20043;-80
2022/03/10 15:19:30;;;;;;;44.75;24.80;;;;;;;;;;4776205;30;20051;-81
2022/03/10 15:22:15;;;;;;;50.50;27.92;;;;;;;;;;4771067;30;20052;-82
2022/03/10 15:25:01;;;;;;;44.33;27.60;;;;;;;;;;4776148;30;20051;-79
2022/03/10 15:27:46;;;;;;;55.80;32.88;;;;;;;;;;4770661;30;20056;-83
2022/03/10 15:30:32;;;;;;;60.42;34.17;;;;;;;;;;4770640;30;20055;-82
2022/03/10 15:33:18;;;;;;;58.25;33.65;;;;;;;;;;4770541;30;20043;-80
2022/03/10 15:36:03;;;;;;;62.83;37.45;;;;;;;;;;4770922;30;20044;-81
2022/03/10 15:38:52;;;;;;;148.68;87.38;;;;;;;;;;4770802;30;20414;-82
2022/03/10 15:41:41;;;;;;;96.63;52.88;;;;;;;;;;4779039;30;20044;-82
2022/03/10 15:44:29;;;;;;;81.05;43.30;;;;;;;;;;4793401;29;20410;-82
2022/03/10 15:47:13;;;;;;;71.10;39.47;;;;;;;;;;4771770;30;20056;-80
2022/03/10 15:50:03;;;;;;;57.35;36.95;;;;;;;;;;4782903;30;20055;-83
2022/03/10 15:52:50;;;;;;;52.08;29.98;;;;;;;;;;4771901;30;20060;-82
2022/03/10 15:55:36;;;;;;;63.75;36.47;;;;;;;;;;4777327;30;20055;-82
2022/03/10 15:58:27;;;;;;;160.18;65.43;;;;;;;;;;4772071;30;20055;-82
2022/03/10 16:01:16;;;;;;;95.78;48.25;;;;;;;;;;4773807;30;20494;-82
2022/03/10 16:04:06;;;;;;;153.77;65.00;;;;;;;;;;4774553;30;20056;-82
2022/03/10 16:06:52;;;;;;;114.43;53.83;;;;;;;;;;4774137;30;20047;-80
2022/03/10 16:09:38;;;;;;;172.27;83.03;;;;;;;;;;4774183;30;20051;-79
2022/03/10 16:12:24;;;;;;;133.73;64.65;;;;;;;;;;4762844;30;20059;-81
2022/03/10 16:15:09;;;;;;;90.47;44.20;;;;;;;;;;4779858;30;20055;-81